createdAt,value
2022-11-26T00:01:41.107Z,60.17
2022-11-26T00:03:52.138Z,95.10
2022-11-26T00:06:00.352Z,71.65
2022-11-26T00:08:05.726Z,65.20
2022-11-26T00:10:22.345Z,69.00
2022-11-26T00:12:31.724Z,69.63
2022-11-26T00:14:37.156Z,71.05
2022-11-26T00:16:42.482Z,68.70
2022-11-26T00:18:50.135Z,68.95
2022-11-26T00:20:58.966Z,65.85
2022-11-26T00:23:05.513Z,75.38
2022-11-26T00:25:19.518Z,66.78
2022-11-26T00:27:28.643Z,54.58
2022-11-26T00:29:34.143Z,79.40
2022-11-26T00:31:39.176Z,64.07
2022-11-26T00:33:46.849Z,65.60
2022-11-26T00:36:00.101Z,82.53
2022-11-26T00:38:05.911Z,66.95
2022-11-26T00:40:23.515Z,67.88
2022-11-26T00:42:28.520Z,81.43
2022-11-26T00:44:35.320Z,80.55
2022-11-26T00:46:40.924Z,70.30
2022-11-26T00:48:46.150Z,86.60
2022-11-26T00:50:55.502Z,66.57
2022-11-26T00:53:01.039Z,75.78
2022-11-26T00:55:14.396Z,70.55
2022-11-26T00:57:19.384Z,125.95
2022-11-26T00:59:26.034Z,80.35
2022-11-26T01:01:33.228Z,76.03
2022-11-26T01:03:42.692Z,108.38
2022-11-26T01:05:51.543Z,98.63
2022-11-26T01:08:03.784Z,81.43
2022-11-26T01:10:18.001Z,92.72
2022-11-26T01:12:23.295Z,107.03
2022-11-26T01:14:28.318Z,84.65
2022-11-26T01:16:42.255Z,98.47
2022-11-26T01:18:47.830Z,72.68
2022-11-26T01:20:52.996Z,98.78
2022-11-26T01:23:02.207Z,146.18
2022-11-26T01:25:08.573Z,101.82
2022-11-26T01:27:15.277Z,96.43
2022-11-26T01:29:22.187Z,73.32
2022-11-26T01:31:31.376Z,72.63
2022-11-26T01:33:36.420Z,82.40
2022-11-26T01:35:41.749Z,100.32
2022-11-26T01:37:47.718Z,107.28
2022-11-26T01:39:55.280Z,73.22
2022-11-26T01:42:08.777Z,82.78
2022-11-26T01:44:22.935Z,78.80
2022-11-26T01:46:28.792Z,86.05
2022-11-26T01:48:36.842Z,86.50
2022-11-26T01:51:07.175Z,75.72
2022-11-26T01:53:17.215Z,81.30
2022-11-26T01:55:25.189Z,69.72
2022-11-26T01:57:34.299Z,76.00
2022-11-26T01:59:43.312Z,95.20
2022-11-26T02:01:48.669Z,98.05
2022-11-26T02:04:05.260Z,102.32
2022-11-26T02:06:19.169Z,113.60
2022-11-26T02:08:24.621Z,61.92
2022-11-26T02:10:32.456Z,64.13
2022-11-26T02:12:37.785Z,86.53
2022-11-26T02:14:46.451Z,77.25
2022-11-26T02:17:05.205Z,76.60
2022-11-26T02:19:47.487Z,90.95
2022-11-26T02:22:00.557Z,95.10
2022-11-26T02:24:32.864Z,68.40
2022-11-26T02:27:41.154Z,75.95
2022-11-26T02:30:08.553Z,92.85
2022-11-26T02:32:19.754Z,115.78
2022-11-26T02:34:37.253Z,124.68
2022-11-26T02:36:52.206Z,75.10
2022-11-26T02:38:57.527Z,108.15
2022-11-26T02:41:02.998Z,61.60
2022-11-26T02:43:08.673Z,117.93
2022-11-26T02:45:24.938Z,90.60
2022-11-26T02:47:32.968Z,57.90
2022-11-26T02:49:40.307Z,64.20
2022-11-26T02:51:47.650Z,65.13
2022-11-26T02:53:55.325Z,64.32
2022-11-26T02:56:08.015Z,55.95
2022-11-26T02:58:13.056Z,56.97
2022-11-26T03:00:23.127Z,54.95
2022-11-26T03:02:35.781Z,70.28
2022-11-26T03:04:46.878Z,68.80
2022-11-26T03:06:53.282Z,65.38
2022-11-26T03:08:59.245Z,63.83
2022-11-26T03:11:04.724Z,82.65
2022-11-26T03:13:09.711Z,62.92
2022-11-26T03:15:15.321Z,59.45
2022-11-26T03:17:23.720Z,71.68
2022-11-26T03:19:29.369Z,57.95
2022-11-26T03:21:35.579Z,73.63
2022-11-26T03:23:41.697Z,55.67
2022-11-26T03:25:47.009Z,51.63
2022-11-26T03:27:51.986Z,55.83
2022-11-26T03:29:57.007Z,50.38
2022-11-26T03:32:02.354Z,53.25
2022-11-26T03:34:10.530Z,49.75
2022-11-26T03:36:15.885Z,57.22
2022-11-26T03:38:21.049Z,54.15
2022-11-26T03:40:26.372Z,50.60
2022-11-26T03:42:33.146Z,54.80
2022-11-26T03:44:38.492Z,72.85
2022-11-26T03:46:43.769Z,80.65
2022-11-26T03:48:49.110Z,96.55
2022-11-26T03:50:57.041Z,45.75
2022-11-26T03:55:08.345Z,115.28
2022-11-26T03:57:13.806Z,79.00
2022-11-26T03:59:18.882Z,55.78
2022-11-26T04:01:24.243Z,61.78
2022-11-26T04:03:30.294Z,78.60
2022-11-26T04:05:36.119Z,71.85
2022-11-26T04:07:43.704Z,51.35
2022-11-26T04:09:48.712Z,67.00
2022-11-26T04:11:54.034Z,51.28
2022-11-26T04:13:59.075Z,47.45
2022-11-26T04:16:04.570Z,58.10
2022-11-26T04:18:10.669Z,66.38
2022-11-26T04:20:16.779Z,78.95
2022-11-26T04:22:22.087Z,55.53
2022-11-26T04:24:30.692Z,69.30
2022-11-26T04:26:35.790Z,59.60
2022-11-26T04:28:41.606Z,63.60
2022-11-26T04:30:46.979Z,69.18
2022-11-26T04:32:52.260Z,153.40
2022-11-26T04:34:57.282Z,106.22
2022-11-26T04:37:02.262Z,513.65
2022-11-26T04:39:07.651Z,105.10
2022-11-26T04:41:15.218Z,82.78
2022-11-26T04:43:20.231Z,62.58
2022-11-26T04:45:25.927Z,142.25
2022-11-26T04:47:31.085Z,412.90
2022-11-26T04:49:36.041Z,495.75
2022-11-26T04:51:41.398Z,293.83
2022-11-26T04:53:46.878Z,186.07
2022-11-26T04:55:53.384Z,406.42
2022-11-26T04:58:00.927Z,553.00
2022-11-26T05:02:12.755Z,385.83
2022-11-26T05:04:18.008Z,425.92
2022-11-26T05:06:22.994Z,374.13
2022-11-26T05:08:28.370Z,110.90
2022-11-26T05:10:33.471Z,49.13
2022-11-26T05:12:38.546Z,199.63
2022-11-26T05:14:46.502Z,47.05
2022-11-26T05:18:56.782Z,358.35
2022-11-26T05:21:01.767Z,282.67
2022-11-26T05:23:07.109Z,319.20
2022-11-26T05:25:13.387Z,170.75
2022-11-26T05:27:19.005Z,61.65
2022-11-26T05:29:25.065Z,40.45
2022-11-26T05:31:33.048Z,45.45
2022-11-26T05:33:38.410Z,42.88
2022-11-26T05:35:43.702Z,44.28
2022-11-26T05:37:49.110Z,233.05
2022-11-26T05:39:54.489Z,393.98
2022-11-26T05:42:00.360Z,362.73
2022-11-26T05:44:08.114Z,399.50
2022-11-26T05:46:17.120Z,426.40
2022-11-26T05:48:24.808Z,347.50
2022-11-26T05:52:36.293Z,71.88
2022-11-26T05:54:41.956Z,66.97
2022-11-26T05:56:47.369Z,204.80
2022-11-26T05:58:52.828Z,223.90
2022-11-26T06:00:57.875Z,441.42
2022-11-26T06:03:04.177Z,374.50
2022-11-26T06:05:16.473Z,428.10
2022-11-26T06:07:21.492Z,411.88
2022-11-26T06:09:26.986Z,440.83
2022-11-26T06:11:31.944Z,118.15
2022-11-26T06:13:37.267Z,42.10
2022-11-26T06:15:43.306Z,59.20
2022-11-26T06:17:48.248Z,49.05
2022-11-26T06:19:53.652Z,101.05
2022-11-26T06:22:01.180Z,68.53
2022-11-26T06:24:06.880Z,87.10
2022-11-26T06:26:14.828Z,99.38
2022-11-26T06:30:25.647Z,108.90
2022-11-26T06:32:32.313Z,116.85
2022-11-26T06:34:37.531Z,126.85
2022-11-26T06:36:44.411Z,143.30
2022-11-26T06:38:52.171Z,115.32
2022-11-26T06:41:02.853Z,140.52
2022-11-26T06:43:08.760Z,142.05
2022-11-26T06:45:14.610Z,117.45
2022-11-26T06:47:20.230Z,121.47
2022-11-26T06:49:25.824Z,121.70
2022-11-26T06:51:30.952Z,143.20
2022-11-26T06:53:36.934Z,133.35
2022-11-26T06:55:44.529Z,138.05
2022-11-26T06:57:52.839Z,115.22
2022-11-26T06:59:58.641Z,99.75
2022-11-26T07:02:03.730Z,104.05
2022-11-26T07:04:09.214Z,95.05
2022-11-26T07:06:22.341Z,107.82
2022-11-26T07:08:27.660Z,92.07
2022-11-26T07:10:33.514Z,91.40
2022-11-26T07:12:41.401Z,115.80
2022-11-26T07:14:46.775Z,91.60
2022-11-26T07:16:51.858Z,87.47
2022-11-26T07:19:02.895Z,89.63
2022-11-26T07:21:10.845Z,84.90
2022-11-26T07:25:22.869Z,128.80
2022-11-26T07:27:28.257Z,88.65
2022-11-26T07:29:35.858Z,83.13
2022-11-26T07:31:42.046Z,97.57
2022-11-26T07:33:47.734Z,78.75
2022-11-26T07:35:55.713Z,83.22
2022-11-26T07:38:01.041Z,80.22
2022-11-26T07:40:07.514Z,157.07
2022-11-26T07:42:13.833Z,109.63
2022-11-26T07:44:18.901Z,109.90
2022-11-26T07:46:29.626Z,127.55
2022-11-26T07:48:35.957Z,85.75
2022-11-26T07:50:41.028Z,104.80
2022-11-26T07:52:46.673Z,73.88
2022-11-26T07:54:51.675Z,75.28
2022-11-26T07:56:57.124Z,64.00
2022-11-26T07:59:03.462Z,77.47
2022-11-26T08:01:13.703Z,94.05
2022-11-26T08:03:24.661Z,87.05
2022-11-26T08:05:29.678Z,63.47
2022-11-26T08:07:34.811Z,69.65
2022-11-26T08:09:40.056Z,60.60
2022-11-26T08:11:45.597Z,65.95
2022-11-26T08:13:56.843Z,83.97
2022-11-26T08:16:02.189Z,78.10
2022-11-26T08:18:07.489Z,85.68
2022-11-26T08:20:16.736Z,102.38
2022-11-26T08:22:22.153Z,79.80
2022-11-26T08:24:27.117Z,61.78
2022-11-26T08:26:37.141Z,101.65
2022-11-26T08:28:45.552Z,63.83
2022-11-26T08:30:50.794Z,69.78
2022-11-26T08:32:55.864Z,79.50
2022-11-26T08:35:02.246Z,132.70
2022-11-26T08:37:10.084Z,183.48
2022-11-26T08:41:21.278Z,108.25
2022-11-26T08:43:39.815Z,84.13
2022-11-26T08:45:56.958Z,88.10
2022-11-26T08:48:02.032Z,117.45
2022-11-26T08:50:08.841Z,76.00
2022-11-26T08:52:16.370Z,68.40
2022-11-26T08:56:28.165Z,50.08
2022-11-26T08:58:38.300Z,49.55
2022-11-26T09:00:44.917Z,43.92
2022-11-26T09:02:52.503Z,55.00
2022-11-26T09:04:57.528Z,69.10
2022-11-26T09:07:02.486Z,46.78
2022-11-26T09:09:18.225Z,62.03
2022-11-26T09:11:23.233Z,51.80
2022-11-26T09:13:28.298Z,58.95
2022-11-26T09:15:33.580Z,61.15
2022-11-26T09:17:38.610Z,53.53
2022-11-26T09:19:43.699Z,44.20
2022-11-26T09:21:49.873Z,34.03
2022-11-26T09:23:54.885Z,45.40
2022-11-26T09:26:02.866Z,47.47
2022-11-26T09:28:10.670Z,45.67
2022-11-26T09:30:17.496Z,36.28
2022-11-26T09:32:25.192Z,69.72
2022-11-26T09:34:32.668Z,40.05
2022-11-26T09:36:37.662Z,47.20
2022-11-26T09:38:43.200Z,49.45
2022-11-26T09:40:58.371Z,42.38
2022-11-26T09:43:15.070Z,48.83
2022-11-26T09:45:42.655Z,34.75
2022-11-26T09:47:51.310Z,60.90
2022-11-26T09:50:06.488Z,46.55
2022-11-26T09:52:14.662Z,53.92
2022-11-26T09:54:23.629Z,53.08
2022-11-26T09:56:30.374Z,43.17
2022-11-26T09:58:52.492Z,50.72
2022-11-26T10:01:00.889Z,48.67
2022-11-26T10:03:16.537Z,37.95
2022-11-26T10:05:22.329Z,39.08
2022-11-26T10:08:02.493Z,27.27
2022-11-26T10:10:19.789Z,36.60
2022-11-26T10:13:10.863Z,37.55
2022-11-26T10:15:20.612Z,44.13
2022-11-26T10:17:38.881Z,41.25
2022-11-26T10:19:58.942Z,32.75
2022-11-26T10:22:16.156Z,35.28
2022-11-26T10:24:29.341Z,31.13
2022-11-26T10:26:38.771Z,33.78
2022-11-26T10:28:49.321Z,35.67
2022-11-26T10:31:02.630Z,32.20
2022-11-26T10:33:12.123Z,36.22
2022-11-26T10:35:20.628Z,28.20
2022-11-26T10:37:28.064Z,31.42
2022-11-26T10:39:34.361Z,33.75
2022-11-26T10:41:40.624Z,27.27
2022-11-26T10:43:47.174Z,27.25
2022-11-26T10:45:58.834Z,30.48
2022-11-26T10:48:24.145Z,25.58
2022-11-26T10:50:47.613Z,28.58
2022-11-26T10:52:56.104Z,25.77
2022-11-26T10:55:33.825Z,23.80
2022-11-26T10:57:47.732Z,28.15
2022-11-26T10:59:55.630Z,27.25
2022-11-26T11:02:23.276Z,22.45
2022-11-26T11:04:34.217Z,30.10
2022-11-26T11:06:45.407Z,26.33
2022-11-26T11:08:54.006Z,22.02
2022-11-26T11:11:02.609Z,23.25
2022-11-26T11:13:14.813Z,19.60
2022-11-26T11:15:27.541Z,26.48
2022-11-26T11:17:42.309Z,22.98
2022-11-26T11:19:47.604Z,26.00
2022-11-26T11:21:53.424Z,20.50
2022-11-26T11:24:18.116Z,26.48
2022-11-26T11:26:26.884Z,25.13
2022-11-26T11:28:34.732Z,31.23
2022-11-26T11:30:41.105Z,28.13
2022-11-26T11:32:51.657Z,20.67
2022-11-26T11:34:57.284Z,21.48
2022-11-26T11:37:04.143Z,21.05
2022-11-26T11:39:09.745Z,22.13
2022-11-26T11:41:27.277Z,25.67
2022-11-26T11:43:39.445Z,21.13
2022-11-26T11:45:53.427Z,22.98
2022-11-26T11:48:15.679Z,20.55
2022-11-26T11:50:26.381Z,24.38
2022-11-26T11:52:45.202Z,31.75
2022-11-26T11:55:00.760Z,21.92
2022-11-26T11:57:14.967Z,25.48
2022-11-26T12:00:10.797Z,24.27
2022-11-26T12:02:59.786Z,25.98
2022-11-26T12:05:41.067Z,15.32
2022-11-26T12:07:56.885Z,17.58
2022-11-26T12:10:15.404Z,16.02
2022-11-26T12:12:25.528Z,16.83
2022-11-26T12:14:38.249Z,22.60
2022-11-26T12:16:48.260Z,21.83
2022-11-26T12:19:03.449Z,19.58
2022-11-26T12:21:15.438Z,19.20
2022-11-26T12:23:32.440Z,16.67
2022-11-26T12:25:40.485Z,17.95
2022-11-26T12:27:51.973Z,17.52
2022-11-26T12:30:03.044Z,11.80
2022-11-26T12:32:17.444Z,18.15
2022-11-26T12:34:30.819Z,17.67
2022-11-26T12:36:51.327Z,22.98
2022-11-26T12:39:01.418Z,17.77
2022-11-26T12:41:12.362Z,20.50
2022-11-26T12:43:22.806Z,54.90
2022-11-26T12:45:45.602Z,23.50
2022-11-26T12:47:57.677Z,21.88
2022-11-26T12:50:15.817Z,22.33
2022-11-26T12:52:34.158Z,20.02
2022-11-26T12:54:46.617Z,17.83
2022-11-26T12:57:02.950Z,17.60
2022-11-26T12:59:16.327Z,21.65
2022-11-26T13:01:21.872Z,18.58
2022-11-26T13:03:33.310Z,21.52
2022-11-26T13:05:58.638Z,17.58
2022-11-26T13:08:34.138Z,25.45
2022-11-26T13:10:56.343Z,39.03
2022-11-26T13:13:13.646Z,26.25
2022-11-26T13:15:27.769Z,20.23
2022-11-26T13:17:45.460Z,22.63
2022-11-26T13:19:55.079Z,16.85
2022-11-26T13:22:38.564Z,24.05
2022-11-26T13:25:05.398Z,22.58
2022-11-26T13:27:38.338Z,26.13
2022-11-26T13:30:12.351Z,31.25
2022-11-26T13:33:00.697Z,24.88
2022-11-26T13:35:24.891Z,30.42
2022-11-26T13:37:49.861Z,20.42
2022-11-26T13:40:37.466Z,21.77
2022-11-26T13:43:10.970Z,21.45
2022-11-26T13:45:52.221Z,21.40
2022-11-26T13:48:02.604Z,20.33
2022-11-26T13:50:16.196Z,29.98
2022-11-26T13:52:28.594Z,22.88
2022-11-26T13:54:40.750Z,22.35
2022-11-26T13:56:50.074Z,19.60
2022-11-26T13:59:02.010Z,22.58
2022-11-26T14:01:35.947Z,26.77
2022-11-26T14:03:48.600Z,24.20
2022-11-26T14:06:11.666Z,23.02
2022-11-26T14:08:39.411Z,25.35
2022-11-26T14:10:46.385Z,24.33
2022-11-26T14:13:20.334Z,24.17
2022-11-26T14:16:04.362Z,21.55
2022-11-26T14:18:13.783Z,27.65
2022-11-26T14:20:19.086Z,20.80
2022-11-26T14:22:33.793Z,25.00
2022-11-26T14:24:59.753Z,26.80
2022-11-26T14:27:04.699Z,25.70
2022-11-26T14:29:20.481Z,24.85
2022-11-26T14:31:31.104Z,26.63
2022-11-26T14:33:45.215Z,25.65
2022-11-26T14:35:58.793Z,22.42
2022-11-26T14:38:06.522Z,20.92
2022-11-26T14:40:27.229Z,25.75
2022-11-26T14:42:32.728Z,22.75
2022-11-26T14:44:40.566Z,27.80
2022-11-26T14:46:49.044Z,23.65
2022-11-26T14:48:59.613Z,26.25
2022-11-26T14:51:06.512Z,18.45
2022-11-26T14:53:13.991Z,25.88
2022-11-26T14:55:24.771Z,24.38
2022-11-26T14:57:41.578Z,23.73
2022-11-26T15:00:02.704Z,23.48
2022-11-26T15:02:24.607Z,20.63
2022-11-26T15:04:34.526Z,17.48
2022-11-26T15:06:45.627Z,21.75
2022-11-26T15:08:51.419Z,27.33
2022-11-26T15:11:00.843Z,18.90
2022-11-26T15:13:14.114Z,17.92
2022-11-26T15:15:25.009Z,21.95
2022-11-26T15:17:32.717Z,20.55
2022-11-26T15:19:40.839Z,25.73
2022-11-26T15:21:46.588Z,18.60
2022-11-26T15:23:55.344Z,19.25
2022-11-26T15:26:03.160Z,17.25
2022-11-26T15:30:31.814Z,21.45
2022-11-26T15:32:37.397Z,24.33
2022-11-26T15:34:43.561Z,24.02
2022-11-26T15:36:48.912Z,21.38
2022-11-26T15:39:07.190Z,27.48
2022-11-26T15:41:20.062Z,24.85
2022-11-26T15:43:30.777Z,25.83
2022-11-26T15:45:43.927Z,19.63
2022-11-26T15:47:51.389Z,22.58
2022-11-26T15:50:01.389Z,19.88
2022-11-26T15:52:11.256Z,23.50
2022-11-26T15:54:26.437Z,24.23
2022-11-26T15:56:40.077Z,23.05
2022-11-26T15:58:46.120Z,25.15
2022-11-26T16:00:57.374Z,26.05
2022-11-26T16:03:02.380Z,19.00
2022-11-26T16:05:25.277Z,18.50
2022-11-26T16:07:32.859Z,20.80
2022-11-26T16:09:37.866Z,24.80
2022-11-26T16:11:59.486Z,22.30
2022-11-26T16:14:29.349Z,26.27
2022-11-26T16:16:37.273Z,23.58
2022-11-26T16:18:47.334Z,24.42
2022-11-26T16:20:52.654Z,22.50
2022-11-26T16:23:02.034Z,23.00
2022-11-26T16:25:21.502Z,23.88
2022-11-26T16:27:30.297Z,27.50
2022-11-26T16:29:38.815Z,41.15
2022-11-26T16:31:46.440Z,34.92
2022-11-26T16:33:54.705Z,33.20
2022-11-26T16:36:00.045Z,27.45
2022-11-26T16:38:05.090Z,37.17
2022-11-26T16:40:19.375Z,35.35
2022-11-26T16:42:26.334Z,32.20
2022-11-26T16:44:31.591Z,32.40
2022-11-26T16:46:41.515Z,24.10
2022-11-26T16:48:50.192Z,25.98
2022-11-26T16:50:56.333Z,24.27
2022-11-26T16:53:01.294Z,22.90
2022-11-26T16:55:07.938Z,25.08
2022-11-26T16:57:18.982Z,25.00
2022-11-26T16:59:31.388Z,26.30
2022-11-26T17:01:36.793Z,23.90
2022-11-26T17:03:43.056Z,23.23
2022-11-26T17:05:55.168Z,23.58
2022-11-26T17:08:02.838Z,22.48
2022-11-26T17:10:14.149Z,30.67
2022-11-26T17:12:22.644Z,29.98
2022-11-26T17:14:27.707Z,23.13
2022-11-26T17:16:33.626Z,26.77
2022-11-26T17:18:38.730Z,33.65
2022-11-26T17:20:44.039Z,34.90
2022-11-26T17:22:52.111Z,28.58
2022-11-26T17:24:57.449Z,29.95
2022-11-26T17:27:09.261Z,29.38
2022-11-26T17:29:16.515Z,28.33
2022-11-26T17:31:21.592Z,33.03
2022-11-26T17:33:28.169Z,27.48
2022-11-26T17:35:33.658Z,33.75
2022-11-26T17:37:39.082Z,28.92
2022-11-26T17:39:46.650Z,27.35
2022-11-26T17:41:51.776Z,33.88
2022-11-26T17:43:56.817Z,34.80
2022-11-26T17:46:04.692Z,34.70
2022-11-26T17:50:21.691Z,22.42
2022-11-26T17:52:26.900Z,20.10
2022-11-26T17:54:31.889Z,24.55
2022-11-26T17:56:39.517Z,26.50
2022-11-26T17:58:44.629Z,16.05
2022-11-26T18:00:49.750Z,20.33
2022-11-26T18:02:55.057Z,26.80
2022-11-26T18:05:00.521Z,20.52
2022-11-26T18:07:10.228Z,19.85
2022-11-26T18:09:15.409Z,29.92
2022-11-26T18:11:20.475Z,22.05
2022-11-26T18:13:29.327Z,22.70
2022-11-26T18:15:34.498Z,27.50
2022-11-26T18:17:39.787Z,30.10
2022-11-26T18:19:45.759Z,23.77
2022-11-26T18:21:54.035Z,25.20
2022-11-26T18:26:05.529Z,34.05
2022-11-26T18:28:10.576Z,26.60
2022-11-26T18:30:19.523Z,28.92
2022-11-26T18:32:25.307Z,25.23
2022-11-26T18:42:37.539Z,27.60
2022-11-26T18:45:19.563Z,30.67
2022-11-26T18:47:27.237Z,37.47
2022-11-26T19:21:22.563Z,24.83
2022-11-26T19:37:39.899Z,36.58
2022-11-26T19:39:45.090Z,37.55
2022-11-26T19:41:50.218Z,46.30
2022-11-26T19:43:55.615Z,42.97
2022-11-26T19:46:05.896Z,41.67
2022-11-26T19:48:10.858Z,40.75
2022-11-26T19:50:16.567Z,41.42
2022-11-26T19:52:21.508Z,43.22
2022-11-26T19:54:29.482Z,49.25
2022-11-26T19:56:35.319Z,56.10
2022-11-26T19:58:41.152Z,60.60
2022-11-26T20:00:46.263Z,55.70
2022-11-26T20:02:51.300Z,53.45
2022-11-26T20:04:56.644Z,40.65
2022-11-26T20:07:01.577Z,44.72
2022-11-26T20:09:08.430Z,53.45
2022-11-26T20:11:17.629Z,49.45
2022-11-26T20:13:22.612Z,262.63
2022-11-26T20:15:27.910Z,46.67
2022-11-26T20:17:33.055Z,49.72
2022-11-26T20:19:38.506Z,84.63
2022-11-26T20:21:43.757Z,50.72
2022-11-26T20:23:49.811Z,51.60
2022-11-26T20:25:54.944Z,58.05
2022-11-26T20:28:03.969Z,46.80
2022-11-26T20:30:11.580Z,46.83
2022-11-26T20:32:16.499Z,46.85
2022-11-26T20:34:26.268Z,44.83
2022-11-26T20:36:31.438Z,38.15
2022-11-26T20:38:36.826Z,48.78
2022-11-26T20:40:43.928Z,47.85
2022-11-26T20:42:49.180Z,48.45
2022-11-26T20:44:56.853Z,48.05
2022-11-26T20:47:02.623Z,56.40
2022-11-26T20:49:10.923Z,64.18
2022-11-26T20:51:17.826Z,71.55
2022-11-26T20:53:22.919Z,64.82
2022-11-26T20:55:28.100Z,59.05
2022-11-26T20:57:33.163Z,67.32
2022-11-26T20:59:38.372Z,44.03
2022-11-26T21:01:46.283Z,44.88
2022-11-26T21:03:51.994Z,48.45
2022-11-26T21:05:57.412Z,43.40
2022-11-26T21:08:02.716Z,28.52
2022-11-26T21:10:09.811Z,43.13
2022-11-26T21:12:14.927Z,48.67
2022-11-26T21:14:20.238Z,54.25
2022-11-26T21:16:25.860Z,61.50
2022-11-26T21:18:33.704Z,48.17
2022-11-26T21:20:42.819Z,38.90
2022-11-26T21:22:47.783Z,41.95
2022-11-26T21:24:52.751Z,38.00
2022-11-26T21:26:58.146Z,43.92
2022-11-26T21:29:04.822Z,30.92
2022-11-26T21:31:11.310Z,38.55
2022-11-26T21:33:17.115Z,37.58
2022-11-26T21:35:25.077Z,34.63
2022-11-26T21:39:35.105Z,29.85
2022-11-26T21:41:42.301Z,24.20
2022-11-26T21:43:48.039Z,29.30
2022-11-26T21:45:53.024Z,24.55
2022-11-26T21:47:58.039Z,20.45
2022-11-26T21:50:03.846Z,23.25
2022-11-26T21:52:12.103Z,27.60
2022-11-26T21:56:24.614Z,20.17
2022-11-26T21:58:29.954Z,33.08
2022-11-26T22:00:34.944Z,19.55
2022-11-26T22:02:40.622Z,25.67
2022-11-26T22:04:46.155Z,27.60
2022-11-26T22:06:52.673Z,23.95
2022-11-26T22:09:00.643Z,31.13
2022-11-26T22:13:16.444Z,27.75
2022-11-26T22:15:21.474Z,20.60
2022-11-26T22:17:26.457Z,25.08
2022-11-26T22:19:34.827Z,24.83
2022-11-26T22:21:42.481Z,29.42
2022-11-26T22:25:56.046Z,18.92
2022-11-26T22:28:01.084Z,21.58
2022-11-26T22:30:07.084Z,25.15
2022-11-26T22:32:12.040Z,24.63
2022-11-26T22:34:22.311Z,25.58
2022-11-26T22:36:27.950Z,24.35
2022-11-26T22:38:33.333Z,24.52
2022-11-26T22:40:38.325Z,23.30
2022-11-26T22:42:46.037Z,33.03
2022-11-26T22:44:50.953Z,27.85
2022-11-26T22:46:55.928Z,30.92
2022-11-26T22:49:02.990Z,28.83
2022-11-26T22:51:09.389Z,36.03
2022-11-26T22:53:14.365Z,33.28
2022-11-26T22:55:19.898Z,33.72
2022-11-26T22:57:25.631Z,25.75
2022-11-26T22:59:33.509Z,24.75
2022-11-26T23:01:39.841Z,25.27
2022-11-26T23:03:44.865Z,25.67
2022-11-26T23:05:50.317Z,24.25
2022-11-26T23:07:55.367Z,23.83
2022-11-26T23:10:00.322Z,25.55
2022-11-26T23:12:05.378Z,28.80
2022-11-26T23:14:12.349Z,25.73
2022-11-26T23:16:22.321Z,23.98
2022-11-26T23:18:28.726Z,23.63
2022-11-26T23:20:34.392Z,29.98
2022-11-26T23:22:39.357Z,26.02
2022-11-26T23:24:44.839Z,30.95
2022-11-26T23:26:50.264Z,22.27
2022-11-26T23:28:55.420Z,27.33
2022-11-26T23:31:04.191Z,26.85
2022-11-26T23:33:12.401Z,19.48
2022-11-26T23:35:18.044Z,31.25
2022-11-26T23:37:24.014Z,22.33
2022-11-26T23:39:29.323Z,29.10
2022-11-26T23:41:34.285Z,26.15
2022-11-26T23:43:41.370Z,30.45
2022-11-26T23:45:49.624Z,24.85
2022-11-26T23:47:54.618Z,25.42
2022-11-26T23:50:02.952Z,28.00
2022-11-26T23:54:12.775Z,28.45
2022-11-26T23:56:22.150Z,26.30
2022-11-26T23:58:27.522Z,23.80
